sensor_id;sensor_type;location;lat;lon;timestamp;P1;P2;P0
45788;PMS7003;31492;54.856;26.318;2023-04-01T00:00:53;22.3;18.2;12.2
45788;PMS7003;31492;54.856;26.318;2023-04-01T00:06:15;21.2;17.4;11.5
45788;PMS7003;31492;54.856;26.318;2023-04-01T00:11:00;20.7;17;10.9
45788;PMS7003;31492;54.856;26.318;2023-04-01T00:16:06;21.8;16.9;11.5
45788;PMS7003;31492;54.856;26.318;2023-04-01T00:21:15;22.3;18.6;12
45788;PMS7003;31492;54.856;26.318;2023-04-01T00:26:04;21.8;17.1;11.3
45788;PMS7003;31492;54.856;26.318;2023-04-01T00:31:14;20.6;16.9;11.2
45788;PMS7003;31492;54.856;26.318;2023-04-01T00:36:08;21.9;17.3;11.3
45788;PMS7003;31492;54.856;26.318;2023-04-01T00:41:24;20.3;17.2;11.6
45788;PMS7003;31492;54.856;26.318;2023-04-01T00:45:52;20.2;17.1;11.2
45788;PMS7003;31492;54.856;26.318;2023-04-01T00:50:54;19.4;15.6;10.1
45788;PMS7003;31492;54.856;26.318;2023-04-01T00:56:07;21.9;17;11.3
45788;PMS7003;31492;54.856;26.318;2023-04-01T01:00:52;20.9;16.9;11.2
45788;PMS7003;31492;54.856;26.318;2023-04-01T01:06:09;19.6;16;10.4
45788;PMS7003;31492;54.856;26.318;2023-04-01T01:11:07;19.9;16.9;10.9
45788;PMS7003;31492;54.856;26.318;2023-04-01T01:16:03;20.2;15.7;10.2
45788;PMS7003;31492;54.856;26.318;2023-04-01T01:21:17;19;15.8;10.1
45788;PMS7003;31492;54.856;26.318;2023-04-01T01:26:02;19.1;15.6;10.1
45788;PMS7003;31492;54.856;26.318;2023-04-01T01:30:54;19;15.3;9.9
45788;PMS7003;31492;54.856;26.318;2023-04-01T01:36:06;19.8;16.6;10.8
45788;PMS7003;31492;54.856;26.318;2023-04-01T01:40:52;19.4;16.2;10
45788;PMS7003;31492;54.856;26.318;2023-04-01T01:45:54;19.8;15.4;10.3
45788;PMS7003;31492;54.856;26.318;2023-04-01T01:50:59;19.4;15.7;10
45788;PMS7003;31492;54.856;26.318;2023-04-01T01:56:22;20.8;16.7;10.7
45788;PMS7003;31492;54.856;26.318;2023-04-01T02:00:53;19.7;16.2;10.4
45788;PMS7003;31492;54.856;26.318;2023-04-01T02:05:53;17.2;14.2;9.4
45788;PMS7003;31492;54.856;26.318;2023-04-01T02:10:56;19.1;15.1;9.4
45788;PMS7003;31492;54.856;26.318;2023-04-01T02:15:59;18.7;15.7;9.9
45788;PMS7003;31492;54.856;26.318;2023-04-01T02:21:06;19.4;15.5;10.5
45788;PMS7003;31492;54.856;26.318;2023-04-01T02:26:00;19.4;15;10
45788;PMS7003;31492;54.856;26.318;2023-04-01T02:31:00;18.6;15.7;10.1
45788;PMS7003;31492;54.856;26.318;2023-04-01T02:36:16;17.1;14.2;9.7
45788;PMS7003;31492;54.856;26.318;2023-04-01T02:40:56;18.7;15;10
45788;PMS7003;31492;54.856;26.318;2023-04-01T02:46:14;17.1;14;9.4
45788;PMS7003;31492;54.856;26.318;2023-04-01T02:51:00;17.6;14.5;9.4
45788;PMS7003;31492;54.856;26.318;2023-04-01T02:55:52;17.9;14.6;9.5
45788;PMS7003;31492;54.856;26.318;2023-04-01T03:01:06;18.9;15;9.8
45788;PMS7003;31492;54.856;26.318;2023-04-01T03:06:02;16.7;13.9;9.4
45788;PMS7003;31492;54.856;26.318;2023-04-01T03:11:06;18.7;14.4;9.1
45788;PMS7003;31492;54.856;26.318;2023-04-01T03:15:52;18.2;14.8;9.7
45788;PMS7003;31492;54.856;26.318;2023-04-01T03:21:14;20.2;15.8;10.1
45788;PMS7003;31492;54.856;26.318;2023-04-01T03:26:12;18.7;14.7;9.8
45788;PMS7003;31492;54.856;26.318;2023-04-01T03:30:52;17.6;15;9.6
45788;PMS7003;31492;54.856;26.318;2023-04-01T03:35:52;16.9;14;9.7
45788;PMS7003;31492;54.856;26.318;2023-04-01T03:40:52;17.7;14.4;9.1
45788;PMS7003;31492;54.856;26.318;2023-04-01T03:46:00;17.2;13.6;9
45788;PMS7003;31492;54.856;26.318;2023-04-01T03:51:06;16.6;14;9.2
45788;PMS7003;31492;54.856;26.318;2023-04-01T03:55:52;17.3;14;8.9
45788;PMS7003;31492;54.856;26.318;2023-04-01T04:01:14;15.1;12.7;8.1
45788;PMS7003;31492;54.856;26.318;2023-04-01T04:05:58;17.2;13.4;8.9
45788;PMS7003;31492;54.856;26.318;2023-04-01T04:11:15;16.5;13.3;8.7
45788;PMS7003;31492;54.856;26.318;2023-04-01T04:15:52;14.8;11;7
45788;PMS7003;31492;54.856;26.318;2023-04-01T04:20:58;14.8;12.6;8.4
45788;PMS7003;31492;54.856;26.318;2023-04-01T04:26:20;16.4;12.5;8.5
45788;PMS7003;31492;54.856;26.318;2023-04-01T04:30:58;15.8;12.7;8.4
45788;PMS7003;31492;54.856;26.318;2023-04-01T04:35:54;14.9;11.9;8.3
45788;PMS7003;31492;54.856;26.318;2023-04-01T04:41:10;16.9;13.1;8.9
45788;PMS7003;31492;54.856;26.318;2023-04-01T04:45:52;16.2;13.3;9.2
45788;PMS7003;31492;54.856;26.318;2023-04-01T04:51:06;15;12.2;8.1
45788;PMS7003;31492;54.856;26.318;2023-04-01T04:56:06;14.9;12;7.9
45788;PMS7003;31492;54.856;26.318;2023-04-01T05:00:52;14.4;11.3;7.9
45788;PMS7003;31492;54.856;26.318;2023-04-01T05:05:53;15.3;12;8.1
45788;PMS7003;31492;54.856;26.318;2023-04-01T05:10:58;13.3;10.5;7.4
45788;PMS7003;31492;54.856;26.318;2023-04-01T05:15:52;13.6;11.2;7.5
45788;PMS7003;31492;54.856;26.318;2023-04-01T05:20:53;15.1;11.7;7.3
45788;PMS7003;31492;54.856;26.318;2023-04-01T05:25:52;14.3;10.9;7.6
45788;PMS7003;31492;54.856;26.318;2023-04-01T05:31:07;14.7;11.8;7.8
45788;PMS7003;31492;54.856;26.318;2023-04-01T05:35:53;14.3;11.2;8
45788;PMS7003;31492;54.856;26.318;2023-04-01T05:41:06;13.8;11.1;8
45788;PMS7003;31492;54.856;26.318;2023-04-01T05:46:12;13.6;11.4;7.7
45788;PMS7003;31492;54.856;26.318;2023-04-01T05:51:00;13.1;10.5;7.1
45788;PMS7003;31492;54.856;26.318;2023-04-01T05:56:05;12.4;10.6;7.3
45788;PMS7003;31492;54.856;26.318;2023-04-01T06:00:58;12.9;10.5;7.4
45788;PMS7003;31492;54.856;26.318;2023-04-01T06:06:09;12.3;10.2;7.1
45788;PMS7003;31492;54.856;26.318;2023-04-01T06:11:01;13.5;10.9;7.3
45788;PMS7003;31492;54.856;26.318;2023-04-01T06:15:53;12;10.3;7.7
45788;PMS7003;31492;54.856;26.318;2023-04-01T06:21:22;12.6;10.1;7.4
45788;PMS7003;31492;54.856;26.318;2023-04-01T06:25:54;14;11.2;8
45788;PMS7003;31492;54.856;26.318;2023-04-01T06:31:05;12.8;10.5;7.2
45788;PMS7003;31492;54.856;26.318;2023-04-01T06:35:56;11.2;10;6.8
45788;PMS7003;31492;54.856;26.318;2023-04-01T06:41:04;10.9;9;6.3
45788;PMS7003;31492;54.856;26.318;2023-04-01T06:45:53;9.6;8.3;5.9
45788;PMS7003;31492;54.856;26.318;2023-04-01T06:51:02;11;9.1;6.4
45788;PMS7003;31492;54.856;26.318;2023-04-01T06:56:13;8.9;7.5;5.2
45788;PMS7003;31492;54.856;26.318;2023-04-01T07:01:14;9.5;7.8;5.6
45788;PMS7003;31492;54.856;26.318;2023-04-01T07:06:08;8.8;7;4.8
45788;PMS7003;31492;54.856;26.318;2023-04-01T07:11:16;9.2;7.3;5.2
45788;PMS7003;31492;54.856;26.318;2023-04-01T07:16:15;10.1;7;4.8
45788;PMS7003;31492;54.856;26.318;2023-04-01T07:21:20;7.8;6.6;4.5
45788;PMS7003;31492;54.856;26.318;2023-04-01T07:26:09;6.3;5.4;3.8
45788;PMS7003;31492;54.856;26.318;2023-04-01T07:30:56;6.5;5;3.7
45788;PMS7003;31492;54.856;26.318;2023-04-01T07:35:54;7.3;5.7;4
45788;PMS7003;31492;54.856;26.318;2023-04-01T07:41:02;7.1;6;4.2
45788;PMS7003;31492;54.856;26.318;2023-04-01T07:46:08;7.1;5.9;4.3
45788;PMS7003;31492;54.856;26.318;2023-04-01T07:51:07;9.3;7;4.9
45788;PMS7003;31492;54.856;26.318;2023-04-01T07:55:54;8.4;7.2;5.1
45788;PMS7003;31492;54.856;26.318;2023-04-01T08:00:54;8.9;7.1;5
45788;PMS7003;31492;54.856;26.318;2023-04-01T08:06:08;7.9;6.8;4.7
45788;PMS7003;31492;54.856;26.318;2023-04-01T08:11:15;7.5;6.2;3.9
45788;PMS7003;31492;54.856;26.318;2023-04-01T08:16:14;7.8;6;4.2
45788;PMS7003;31492;54.856;26.318;2023-04-01T08:21:01;8.5;7.1;5.1
45788;PMS7003;31492;54.856;26.318;2023-04-01T08:26:02;7.9;7;5
45788;PMS7003;31492;54.856;26.318;2023-04-01T08:31:08;8.8;7.2;5
45788;PMS7003;31492;54.856;26.318;2023-04-01T08:35:54;8.8;7;5
45788;PMS7003;31492;54.856;26.318;2023-04-01T08:40:59;8.3;6.7;4.9
45788;PMS7003;31492;54.856;26.318;2023-04-01T08:46:06;9.6;7.9;5.6
45788;PMS7003;31492;54.856;26.318;2023-04-01T08:50:56;11.4;9.5;6.4
45788;PMS7003;31492;54.856;26.318;2023-04-01T08:56:12;11;8.8;6.1
45788;PMS7003;31492;54.856;26.318;2023-04-01T09:00:53;12.3;9;6.5
45788;PMS7003;31492;54.856;26.318;2023-04-01T09:06:04;10.1;7.5;5.3
45788;PMS7003;31492;54.856;26.318;2023-04-01T09:11:04;10.6;8.5;5.9
45788;PMS7003;31492;54.856;26.318;2023-04-01T09:16:27;11.3;9.5;6.7
45788;PMS7003;31492;54.856;26.318;2023-04-01T09:20:57;9.9;7.4;5.4
45788;PMS7003;31492;54.856;26.318;2023-04-01T09:26:18;8.9;7.3;5.1
45788;PMS7003;31492;54.856;26.318;2023-04-01T09:31:13;8.9;7.2;5
45788;PMS7003;31492;54.856;26.318;2023-04-01T09:35:55;7;6;4
45788;PMS7003;31492;54.856;26.318;2023-04-01T09:41:02;6.1;5.1;3.8
45788;PMS7003;31492;54.856;26.318;2023-04-01T09:45:57;6.7;5.7;4.2
45788;PMS7003;31492;54.856;26.318;2023-04-01T09:51:10;7.3;5.1;3.8
45788;PMS7003;31492;54.856;26.318;2023-04-01T09:56:19;8.3;5.9;4.3
45788;PMS7003;31492;54.856;26.318;2023-04-01T10:01:20;8.4;6.5;4.7
45788;PMS7003;31492;54.856;26.318;2023-04-01T10:10:59;9.7;8;5.7
45788;PMS7003;31492;54.856;26.318;2023-04-01T10:16:02;66.5;50.3;25.9
45788;PMS7003;31492;54.856;26.318;2023-04-01T10:21:18;15.6;12.2;8.5
45788;PMS7003;31492;54.856;26.318;2023-04-01T10:27:16;12.2;10.2;7.5
45788;PMS7003;31492;54.856;26.318;2023-04-01T10:31:04;8.1;7;5
45788;PMS7003;31492;54.856;26.318;2023-04-01T12:52:05;10.4;8.7;6.6
45788;PMS7003;31492;54.856;26.318;2023-04-01T12:56:14;15.2;12.6;9.1
45788;PMS7003;31492;54.856;26.318;2023-04-01T13:01:19;20.3;17.2;12.6
45788;PMS7003;31492;54.856;26.318;2023-04-01T13:05:59;11;9.3;7
45788;PMS7003;31492;54.856;26.318;2023-04-01T13:10:58;7.2;6.3;4.9
45788;PMS7003;31492;54.856;26.318;2023-04-01T13:15:54;5.4;4.5;3.2
45788;PMS7003;31492;54.856;26.318;2023-04-01T13:21:08;7;5.7;4.3
45788;PMS7003;31492;54.856;26.318;2023-04-01T13:26:17;8.6;6.8;5.2
45788;PMS7003;31492;54.856;26.318;2023-04-01T13:31:02;8.4;7.1;5.4
45788;PMS7003;31492;54.856;26.318;2023-04-01T13:36:16;7.1;6.1;4.7
45788;PMS7003;31492;54.856;26.318;2023-04-01T13:40:59;5.8;5.2;3.9
45788;PMS7003;31492;54.856;26.318;2023-04-01T13:46:01;6.7;5.7;4.5
45788;PMS7003;31492;54.856;26.318;2023-04-01T13:50:55;7.6;6.5;4.9
45788;PMS7003;31492;54.856;26.318;2023-04-01T13:56:11;5.5;4.5;3.4
45788;PMS7003;31492;54.856;26.318;2023-04-01T14:01:10;5;4.2;3.3
45788;PMS7003;31492;54.856;26.318;2023-04-01T14:05:56;8.1;6.6;4.9
45788;PMS7003;31492;54.856;26.318;2023-04-01T14:10:55;3.9;3.3;2.7
45788;PMS7003;31492;54.856;26.318;2023-04-01T14:15:56;3.3;2.5;1.9
45788;PMS7003;31492;54.856;26.318;2023-04-01T14:21:19;4.7;3.8;3
45788;PMS7003;31492;54.856;26.318;2023-04-01T14:26:07;6.2;4.9;3.8
45788;PMS7003;31492;54.856;26.318;2023-04-01T14:31:03;6.5;5.3;3.8
45788;PMS7003;31492;54.856;26.318;2023-04-01T14:36:17;5.3;4.3;3.3
45788;PMS7003;31492;54.856;26.318;2023-04-01T14:41:19;5.7;4.9;3.9
45788;PMS7003;31492;54.856;26.318;2023-04-01T14:46:05;4.9;4.2;3.2
45788;PMS7003;31492;54.856;26.318;2023-04-01T14:50:53;5.5;4.3;3.3
45788;PMS7003;31492;54.856;26.318;2023-04-01T14:55:53;5.2;4.2;3.4
45788;PMS7003;31492;54.856;26.318;2023-04-01T15:01:19;3.9;3.3;2.5
45788;PMS7003;31492;54.856;26.318;2023-04-01T15:06:41;3.7;2.8;2.2
45788;PMS7003;31492;54.856;26.318;2023-04-01T15:11:13;3.8;3;2.4
45788;PMS7003;31492;54.856;26.318;2023-04-01T15:15:58;4.4;3.1;2.5
45788;PMS7003;31492;54.856;26.318;2023-04-01T15:21:16;2.9;2.7;2
45788;PMS7003;31492;54.856;26.318;2023-04-01T15:26:06;3.1;2.6;1.8
45788;PMS7003;31492;54.856;26.318;2023-04-01T15:31:13;2.9;2.3;1.7
45788;PMS7003;31492;54.856;26.318;2023-04-01T15:35:56;3.1;2.9;2.2
45788;PMS7003;31492;54.856;26.318;2023-04-01T15:40:53;3.2;2.6;2
45788;PMS7003;31492;54.856;26.318;2023-04-01T15:45:56;2.9;2.4;1.8
45788;PMS7003;31492;54.856;26.318;2023-04-01T15:51:19;3.1;2.6;2.1
45788;PMS7003;31492;54.856;26.318;2023-04-01T15:55:54;3.1;2.4;1.7
45788;PMS7003;31492;54.856;26.318;2023-04-01T16:00:53;2.1;2;1.7
45788;PMS7003;31492;54.856;26.318;2023-04-01T16:06:08;2.6;2;1.5
45788;PMS7003;31492;54.856;26.318;2023-04-01T16:11:02;2.3;1.9;1.2
45788;PMS7003;31492;54.856;26.318;2023-04-01T16:16:18;2.1;1.6;1.1
45788;PMS7003;31492;54.856;26.318;2023-04-01T16:20:53;2;1.5;1.1
45788;PMS7003;31492;54.856;26.318;2023-04-01T16:25:54;1.9;1.3;1
45788;PMS7003;31492;54.856;26.318;2023-04-01T16:31:07;2.1;1.9;1.5
45788;PMS7003;31492;54.856;26.318;2023-04-01T16:35:54;2.1;1.4;1
45788;PMS7003;31492;54.856;26.318;2023-04-01T16:41:00;1.6;1;0.8
45788;PMS7003;31492;54.856;26.318;2023-04-01T16:46:12;1.5;1.2;0.9
45788;PMS7003;31492;54.856;26.318;2023-04-01T16:50:53;1;0.8;0.7
45788;PMS7003;31492;54.856;26.318;2023-04-01T16:56:36;1.6;1;0.8
45788;PMS7003;31492;54.856;26.318;2023-04-01T17:01:26;1.6;1;0.8
45788;PMS7003;31492;54.856;26.318;2023-04-01T17:06:11;1;0.8;0.6
45788;PMS7003;31492;54.856;26.318;2023-04-01T17:10:53;1;0.9;0.7
45788;PMS7003;31492;54.856;26.318;2023-04-01T17:15:55;1;0.7;0.5
45788;PMS7003;31492;54.856;26.318;2023-04-01T17:21:15;0.9;0.7;0.4
45788;PMS7003;31492;54.856;26.318;2023-04-01T17:26:13;1;0.8;0.5
45788;PMS7003;31492;54.856;26.318;2023-04-01T17:31:00;0.5;0.4;0.1
45788;PMS7003;31492;54.856;26.318;2023-04-01T17:36:35;1.1;0.9;0.7
45788;PMS7003;31492;54.856;26.318;2023-04-01T17:40:56;1.1;1;0.7
45788;PMS7003;31492;54.856;26.318;2023-04-01T17:45:53;1.1;1;0.9
45788;PMS7003;31492;54.856;26.318;2023-04-01T17:50:58;2.1;1.6;1.3
45788;PMS7003;31492;54.856;26.318;2023-04-01T17:56:20;1.2;0.7;0.6
45788;PMS7003;31492;54.856;26.318;2023-04-01T18:01:43;0.8;0.8;0.6
45788;PMS7003;31492;54.856;26.318;2023-04-01T18:05:57;1.8;1.4;1.2
45788;PMS7003;31492;54.856;26.318;2023-04-01T18:11:08;2.2;1.6;1.2
45788;PMS7003;31492;54.856;26.318;2023-04-01T18:16:11;1.6;1.2;1
45788;PMS7003;31492;54.856;26.318;2023-04-01T18:21:00;2.1;1.6;1.1
45788;PMS7003;31492;54.856;26.318;2023-04-01T18:25:53;1.9;1.2;1.1
45788;PMS7003;31492;54.856;26.318;2023-04-01T18:30:54;0.8;0.8;0.6
45788;PMS7003;31492;54.856;26.318;2023-04-01T18:35:54;1.9;1.4;1
45788;PMS7003;31492;54.856;26.318;2023-04-01T18:41:07;1.3;0.8;0.6
45788;PMS7003;31492;54.856;26.318;2023-04-01T18:45:59;1.3;0.9;0.7
45788;PMS7003;31492;54.856;26.318;2023-04-01T18:50:59;1.4;1;0.6
45788;PMS7003;31492;54.856;26.318;2023-04-01T18:56:03;0.7;0.7;0.6
45788;PMS7003;31492;54.856;26.318;2023-04-01T19:01:16;1.2;0.8;0.5
45788;PMS7003;31492;54.856;26.318;2023-04-01T19:06:15;1;0.7;0.4
45788;PMS7003;31492;54.856;26.318;2023-04-01T19:11:15;1.2;0.7;0.5
45788;PMS7003;31492;54.856;26.318;2023-04-01T19:16:30;0.9;0.8;0.7
45788;PMS7003;31492;54.856;26.318;2023-04-01T19:20:53;1.6;1.2;0.8
45788;PMS7003;31492;54.856;26.318;2023-04-01T19:25:53;1.3;0.8;0.6
45788;PMS7003;31492;54.856;26.318;2023-04-01T19:30:54;1.5;0.9;0.8
45788;PMS7003;31492;54.856;26.318;2023-04-01T19:35:54;1.6;1.2;0.8
45788;PMS7003;31492;54.856;26.318;2023-04-01T19:41:18;1.3;1.1;1
45788;PMS7003;31492;54.856;26.318;2023-04-01T19:45:54;1.6;1.1;0.9
45788;PMS7003;31492;54.856;26.318;2023-04-01T19:50:55;1.4;1.1;1
45788;PMS7003;31492;54.856;26.318;2023-04-01T19:55:55;1.6;1.2;0.9
45788;PMS7003;31492;54.856;26.318;2023-04-01T20:06:28;2;1.7;1.2
45788;PMS7003;31492;54.856;26.318;2023-04-01T20:10:56;2;1.7;1.2
45788;PMS7003;31492;54.856;26.318;2023-04-01T20:21:16;1.6;1.3;1
45788;PMS7003;31492;54.856;26.318;2023-04-01T20:26:07;2.1;1.6;1.3
45788;PMS7003;31492;54.856;26.318;2023-04-01T20:30:55;1.7;1.5;1.1
45788;PMS7003;31492;54.856;26.318;2023-04-01T20:36:15;1.6;1.5;1.3
45788;PMS7003;31492;54.856;26.318;2023-04-01T20:41:06;1.6;0.9;0.8
45788;PMS7003;31492;54.856;26.318;2023-04-01T20:45:55;1.5;1.4;1
45788;PMS7003;31492;54.856;26.318;2023-04-01T20:51:23;1.7;1.3;1
45788;PMS7003;31492;54.856;26.318;2023-04-01T20:56:06;1.1;1.1;1
45788;PMS7003;31492;54.856;26.318;2023-04-01T21:00:55;2.4;2;1.5
45788;PMS7003;31492;54.856;26.318;2023-04-01T21:05:58;1.1;1.1;0.9
45788;PMS7003;31492;54.856;26.318;2023-04-01T21:11:01;1.2;1.2;0.9
45788;PMS7003;31492;54.856;26.318;2023-04-01T21:15:57;1.3;1.2;0.9
45788;PMS7003;31492;54.856;26.318;2023-04-01T21:21:04;2;1.6;1.1
45788;PMS7003;31492;54.856;26.318;2023-04-01T21:26:08;1.8;1.6;1.3
45788;PMS7003;31492;54.856;26.318;2023-04-01T21:31:08;2.1;1.5;1.2
45788;PMS7003;31492;54.856;26.318;2023-04-01T21:36:00;2;1.6;1.3
45788;PMS7003;31492;54.856;26.318;2023-04-01T21:40:55;2.1;1.7;1.4
45788;PMS7003;31492;54.856;26.318;2023-04-01T21:45:59;1.8;1.6;1.3
45788;PMS7003;31492;54.856;26.318;2023-04-01T21:50:55;2.4;1.6;1
45788;PMS7003;31492;54.856;26.318;2023-04-01T21:55:59;2.3;1.9;1.5
45788;PMS7003;31492;54.856;26.318;2023-04-01T22:01:09;2.5;2;1.6
45788;PMS7003;31492;54.856;26.318;2023-04-01T22:06:10;3;2.5;2.1
45788;PMS7003;31492;54.856;26.318;2023-04-01T22:11:16;2.8;2;1.6
45788;PMS7003;31492;54.856;26.318;2023-04-01T22:15:56;2.4;1.8;1.3
45788;PMS7003;31492;54.856;26.318;2023-04-01T22:21:06;2.3;1.8;1.4
45788;PMS7003;31492;54.856;26.318;2023-04-01T22:25:59;2.3;1.9;1.6
45788;PMS7003;31492;54.856;26.318;2023-04-01T22:31:16;2.9;2.3;1.7
45788;PMS7003;31492;54.856;26.318;2023-04-01T22:35:54;2.4;2;1.6
45788;PMS7003;31492;54.856;26.318;2023-04-01T22:41:11;2.3;2;1.6
45788;PMS7003;31492;54.856;26.318;2023-04-01T22:46:13;1.9;1.6;1.2
45788;PMS7003;31492;54.856;26.318;2023-04-01T22:51:09;2.5;2;1.5
45788;PMS7003;31492;54.856;26.318;2023-04-01T22:56:03;2.1;1.7;1.5
45788;PMS7003;31492;54.856;26.318;2023-04-01T23:01:12;1.9;1.2;0.9
45788;PMS7003;31492;54.856;26.318;2023-04-01T23:06:01;2.3;1.8;1.4
